Tupelo, AR (72169)

8:35 AM CDT on August 30, 2015 (GMT -0500)
South Edmonds - MacTown | | Change Station
CLOSE
Current Station
Personal Weather Station
Location: McCrory, AR
Elevation: 207 ft
Nearby Weather Stations
Active Advisory: Flood Warning

Elev 207 ft 35.27 °N, 91.20 °W | Updated 44 seconds ago

Clear
Clear
72.9 °F
Feels Like 72.9 °F
N
2.0
Wind Variable Wind from SE
Gusts 2.5 mph

Today
High -- | Low -- °F
--% Chance of Precip.
Yesterday
High -- | Low -- °F
Precip. -- in
6:35 AM 7:34 PM
Full, 99% visible
Pressure 30.03 in
Visibility 6.0 miles
Clouds Few 12000 ft
Dew Point 73 °F
Humidity 99%
Rainfall 0.00 in
Snow Depth Not available.
UV 1.0 out of 12
Pollen 9.30 out of 12
Air Quality Not available.
Flu Activity Not available.
METAR KM19 301256Z AUTO 12005KT 6SM BR FEW120 22/22 A3004 RMK AO2 T02220216 SLP167
Pressure 30.03 in
Visibility 6.0 miles
Clouds Few 12000 ft
Dew Point 73 °F
Humidity 99%
Rainfall 0.00 in
Snow Depth Not available.
UV 1.0 out of 12
Pollen 9.30 out of 12
Air Quality Not available.
Flu Activity Not available.
METAR KM19 301256Z AUTO 12005KT 6SM BR FEW120 22/22 A3004 RMK AO2 T02220216 SLP167

10-Day Weather Forecast

×

Almanac

Astronomy

Aug. 30, 2015 Rise Set
Actual Time
Civil Twilight
Nautical Twilight
Astronomical Twilight
Moon
Length of Visible Light
Length of Day
Tomorrow will be .
, % of the Moon is Illuminated

Today's Extremes

State Highs State Lows

Community

WunderPhotos

Upload Photos

1,850,953 photos uploaded!

WunderBlogs® & News

Nearby

Air Quality

  Air Quality AQ Index Pollutant
Not available.

Snow Depth

Station Depth Elevation

Earthquake Activity

City Distance Mag. Time & Date
Minimum magnitude displayed is 2.5.

Coastal Water Temperatures

Place Temperature

Stations

Nearby Weather Stations

Station Location Temp. Windchill Dew Point Humidity Wind Precip. Elev Updated Type
                   
Flood Warning
Statement as of 8:12 PM CDT on August 29, 2015

The Flood Warning continues for
the Cache River near Patterson.
* Until further notice... or until the warning is cancelled.
* At 7:00 PM Saturday the stage was 8.3 feet.
* Minor flooding is occurring and minor flooding is forecast.
* Flood stage is 8.0 feet.
* Forecast... the river will remain just above flood stage for much
of the upcoming week.
* Impacts at 8.0 feet... low swampy Timberland along the river begins
to flood. Flood gates should be closed and equipment moved out of
the low grounds along the river and tributaries.


             Fld observed forecast 7 am
location stg stg day time sun Mon Tue Wed Thu

Cache River
Patterson 8 8.3 Sat 07 PM 8.2 8.2 8.2 8.2 8.2




Lat... Lon 3510 9133 3522 9128 3539 9123 3538 9113
3521 9117 3508 9122


58